Nearby METAR Reports

 

KDVT - Phoenix/Deer Vly, Arizona, USA
Distance from station: SW 14mi, 22km
Updated: Sun, 12-Jul-2020 7:53am MST
Clear
Clear
 Wind from calm
Wind: Calm
Temperature: 93°F , 34°C
Dew Point: 59°F , 15°C
Humidity: 32%
Barometer: 29.89 inHg , 1012.2 hPa
Clouds: Clear
Visibility: 10 miles , 16 km
2020/07/12 14:53 KDVT 121453Z 00000KT 10SM CLR 34/15 A2989 RMK AO2 SLP092 T03390150 51017
KSDL - Scottsdale, Arizona, USA
Distance from station: S 15mi, 23km
Updated: Sun, 12-Jul-2020 6:53am MST
Clear
Clear
 Wind from SE
Wind: SE 3 mph , 6 km/h
Temperature: 93°F , 34°C
Dew Point: 59°F , 15°C
Humidity: 32%
Barometer: 29.89 inHg , 1012.2 hPa
Clouds: Clear
Visibility: 10 miles , 16 km
2020/07/12 13:53 KSDL 121353Z 14003KT 10SM CLR 34/15 A2989 RMK AO2 SLP088 T03390150
KFFZ - Mesa/Falcon Fld, Arizona, USA
Distance from station: SSE 27mi, 44km
Updated: Sun, 12-Jul-2020 7:54am MST
Clear
Clear
 Wind from E
Wind: E 3 mph , 6 km/h
Temperature: 97°F , 36°C
Dew Point: 57°F , 14°C
Humidity: 27%
Barometer: 29.88 inHg , 1011.9 hPa
Clouds: Clear
Visibility: 10 miles , 16 km
2020/07/12 14:54 KFFZ 121454Z 09003KT 10SM CLR 36/14 A2988 RMK AO2 SLP088 T03610139 51013
 
KPHX - Phoenix/Sky Hrbr, Arizona, USA
Distance from station: SSW 28mi, 45km
Updated: Sun, 12-Jul-2020 7:51am MST
Mostly cloudy
Mostly cloudy
 Wind from calm
Wind: Calm
Temperature: 99°F , 37°C
Dew Point: 57°F , 14°C
Humidity: 25%
Barometer: 29.85 inHg , 1010.8 hPa
Clouds: Mostly cloudy
Visibility: 10 miles , 16 km
Cloud details: Partly cloudy 17000 ft
Partly cloudy 19000 ft
Mostly cloudy 25000 ft
2020/07/12 14:51 KPHX 121451Z 00000KT 10SM SCT170 SCT190 BKN250 37/14 A2985 RMK AO2 SLP082 T03670144 51013
KGEU - Glendale, Arizona, USA
Distance from station: SW 31mi, 49km
Updated: Sat, 11-Jul-2020 6:48pm MST
NOT Current
Partly cloudy
Partly cloudy
 Wind from SSW
Wind: SSW 20 mph , 31 km/h, Gust: 25 mph , 41 km/h
Temperature: 109°F , 43°C
Dew Point: 48°F , 9°C
Humidity: 13%
Barometer: 29.77 inHg , 1008.1 hPa
Clouds: Partly cloudy
Visibility: 10 miles , 16 km
Cloud details: Few Clouds 13000 ft
Partly cloudy 20000 ft
2020/07/12 01:48 KGEU 120148Z 20017G22KT 10SM FEW130 SCT200 43/09 A2977 RMK LAST
KLUF - Luke Afb/Glendal, Arizona, USA
Distance from station: SW 34mi, 55km
Updated: Sun, 12-Jul-2020 6:58am MST
Few Clouds
Few Clouds
 Wind from SSW
Wind: SSW 6 mph , 9 km/h
Temperature: 93°F , 34°C
Dew Point: 59°F , 15°C
Humidity: 32%
Barometer: 29.83 inHg , 1010.2 hPa
Clouds: Few Clouds
Visibility: 10 miles , 16 km
Cloud details: Few Clouds 20000 ft
2020/07/12 13:58 KLUF 121358Z AUTO 20005KT 10SM FEW200 34/15 A2983 RMK AO2 SLP083 T03390149 $
 
KGYR - Goodyear Municip, Arizona, USA
Distance from station: SW 39mi, 63km
Updated: Sun, 12-Jul-2020 7:47am MST
Partly cloudy
Partly cloudy
 Wind from SW
Wind: SW 8 mph , 13 km/h
Temperature: 97°F , 36°C
Dew Point: 61°F , 16°C
Humidity: 30%
Barometer: 29.85 inHg , 1010.8 hPa
Clouds: Partly cloudy
Visibility: 10 miles , 16 km
Cloud details: Partly cloudy 17000 ft
Partly cloudy 20000 ft
2020/07/12 14:47 KGYR 121447Z 22007KT 10SM SCT170 SCT200 36/16 A2985
KIWA - Chandler/Mesa, Arizona, USA
Distance from station: SSE 39mi, 63km
Updated: Sun, 12-Jul-2020 7:50am MST
Partly cloudy
Partly cloudy
 Wind from ESE
Wind: ESE 8 mph , 13 km/h
Temperature: 91°F , 33°C
Dew Point: 57°F , 14°C
Humidity: 32%
Barometer: 29.90 inHg , 1012.5 hPa
Clouds: Partly cloudy
Visibility: 10 miles , 16 km
Cloud details: Partly cloudy 15000 ft
2020/07/12 14:50 KIWA 121450Z 12007KT 10SM SCT150 33/14 A2990
KPAN - Payson, Arizona, USA
Distance from station: NE 44mi, 70km
Updated: Sun, 12-Jul-2020 7:55am MST
Clear
Clear
 Wind from calm
Wind: Calm
Temperature: 84°F , 29°C
Dew Point: 45°F , 7°C
Humidity: 25%
Barometer: 30.24 inHg , 1024 hPa
Clouds: Clear
Visibility: 10 miles , 16 km
2020/07/12 14:55 KPAN 121455Z AUTO 00000KT 10SM CLR 29/07 A3024 RMK AO2